sensor_id;sensor_type;location;lat;lon;timestamp;temperature;humidity
11035;DHT22;5571;48.110;-1.706;2023-09-07T00:00:49;25.60;99.90
11035;DHT22;5571;48.110;-1.706;2023-09-07T00:03:15;25.60;99.90
11035;DHT22;5571;48.110;-1.706;2023-09-07T00:05:41;25.60;99.90
11035;DHT22;5571;48.110;-1.706;2023-09-07T00:08:07;25.60;99.90
11035;DHT22;5571;48.110;-1.706;2023-09-07T00:10:33;25.50;99.90
11035;DHT22;5571;48.110;-1.706;2023-09-07T00:13:02;25.50;99.90
11035;DHT22;5571;48.110;-1.706;2023-09-07T00:15:29;25.50;99.90
11035;DHT22;5571;48.110;-1.706;2023-09-07T00:17:55;25.50;99.90
11035;DHT22;5571;48.110;-1.706;2023-09-07T00:20:21;25.50;99.90
11035;DHT22;5571;48.110;-1.706;2023-09-07T00:22:47;25.50;99.90
11035;DHT22;5571;48.110;-1.706;2023-09-07T00:25:13;25.40;99.90
11035;DHT22;5571;48.110;-1.706;2023-09-07T00:27:39;25.40;99.90
11035;DHT22;5571;48.110;-1.706;2023-09-07T00:30:05;25.40;99.90
11035;DHT22;5571;48.110;-1.706;2023-09-07T00:32:41;25.40;99.90
11035;DHT22;5571;48.110;-1.706;2023-09-07T00:35:06;25.40;99.90
11035;DHT22;5571;48.110;-1.706;2023-09-07T00:37:33;25.40;99.90
11035;DHT22;5571;48.110;-1.706;2023-09-07T00:39:58;25.40;99.90
11035;DHT22;5571;48.110;-1.706;2023-09-07T00:42:24;25.30;99.90
11035;DHT22;5571;48.110;-1.706;2023-09-07T00:44:50;25.30;99.90
11035;DHT22;5571;48.110;-1.706;2023-09-07T00:47:16;25.30;99.90
11035;DHT22;5571;48.110;-1.706;2023-09-07T00:49:42;25.30;99.90
11035;DHT22;5571;48.110;-1.706;2023-09-07T00:52:08;25.20;99.90
11035;DHT22;5571;48.110;-1.706;2023-09-07T00:54:35;25.20;99.90
11035;DHT22;5571;48.110;-1.706;2023-09-07T00:57:04;25.30;99.90
11035;DHT22;5571;48.110;-1.706;2023-09-07T00:59:30;25.20;99.90
11035;DHT22;5571;48.110;-1.706;2023-09-07T01:01:57;25.20;99.90
11035;DHT22;5571;48.110;-1.706;2023-09-07T01:04:22;25.20;99.90
11035;DHT22;5571;48.110;-1.706;2023-09-07T01:06:55;25.10;99.90
11035;DHT22;5571;48.110;-1.706;2023-09-07T01:09:24;25.10;99.90
11035;DHT22;5571;48.110;-1.706;2023-09-07T01:11:51;25.00;99.90
11035;DHT22;5571;48.110;-1.706;2023-09-07T01:14:18;25.00;99.90
11035;DHT22;5571;48.110;-1.706;2023-09-07T01:16:44;25.10;99.90
11035;DHT22;5571;48.110;-1.706;2023-09-07T01:19:11;25.00;99.90
11035;DHT22;5571;48.110;-1.706;2023-09-07T01:21:37;25.00;99.90
11035;DHT22;5571;48.110;-1.706;2023-09-07T01:24:06;25.00;99.90
11035;DHT22;5571;48.110;-1.706;2023-09-07T01:26:32;25.00;99.90
11035;DHT22;5571;48.110;-1.706;2023-09-07T01:28:58;25.00;99.90
11035;DHT22;5571;48.110;-1.706;2023-09-07T01:31:23;25.00;99.90
11035;DHT22;5571;48.110;-1.706;2023-09-07T01:33:49;24.90;99.90
11035;DHT22;5571;48.110;-1.706;2023-09-07T01:36:14;24.90;99.90
11035;DHT22;5571;48.110;-1.706;2023-09-07T01:38:40;24.90;99.90
11035;DHT22;5571;48.110;-1.706;2023-09-07T01:41:05;24.90;99.90
11035;DHT22;5571;48.110;-1.706;2023-09-07T01:43:31;24.90;99.90
11035;DHT22;5571;48.110;-1.706;2023-09-07T01:45:57;24.90;99.90
11035;DHT22;5571;48.110;-1.706;2023-09-07T01:48:22;24.80;99.90
11035;DHT22;5571;48.110;-1.706;2023-09-07T01:50:52;24.80;99.90
11035;DHT22;5571;48.110;-1.706;2023-09-07T01:53:18;24.80;99.90
11035;DHT22;5571;48.110;-1.706;2023-09-07T01:55:44;24.80;99.90
11035;DHT22;5571;48.110;-1.706;2023-09-07T01:58:09;24.80;99.90
11035;DHT22;5571;48.110;-1.706;2023-09-07T02:00:38;24.80;99.90
11035;DHT22;5571;48.110;-1.706;2023-09-07T02:03:05;24.70;99.90
11035;DHT22;5571;48.110;-1.706;2023-09-07T02:05:31;24.70;99.90
11035;DHT22;5571;48.110;-1.706;2023-09-07T02:07:58;24.70;99.90
11035;DHT22;5571;48.110;-1.706;2023-09-07T02:10:23;24.70;99.90
11035;DHT22;5571;48.110;-1.706;2023-09-07T02:12:49;24.70;99.90
11035;DHT22;5571;48.110;-1.706;2023-09-07T02:15:15;24.60;99.90
11035;DHT22;5571;48.110;-1.706;2023-09-07T02:17:40;24.60;99.90
11035;DHT22;5571;48.110;-1.706;2023-09-07T02:20:11;24.60;99.90
11035;DHT22;5571;48.110;-1.706;2023-09-07T02:22:37;24.60;99.90
11035;DHT22;5571;48.110;-1.706;2023-09-07T02:25:03;24.50;99.90
11035;DHT22;5571;48.110;-1.706;2023-09-07T02:27:32;24.50;99.90
11035;DHT22;5571;48.110;-1.706;2023-09-07T02:29:57;24.50;99.90
11035;DHT22;5571;48.110;-1.706;2023-09-07T02:32:23;24.50;99.90
11035;DHT22;5571;48.110;-1.706;2023-09-07T02:34:48;24.50;99.90
11035;DHT22;5571;48.110;-1.706;2023-09-07T02:37:14;24.50;99.90
11035;DHT22;5571;48.110;-1.706;2023-09-07T02:39:41;24.50;99.90
11035;DHT22;5571;48.110;-1.706;2023-09-07T02:42:07;24.50;99.90
11035;DHT22;5571;48.110;-1.706;2023-09-07T02:44:33;24.50;99.90
11035;DHT22;5571;48.110;-1.706;2023-09-07T02:46:58;24.40;99.90
11035;DHT22;5571;48.110;-1.706;2023-09-07T02:49:24;24.40;99.90
11035;DHT22;5571;48.110;-1.706;2023-09-07T02:51:50;24.40;99.90
11035;DHT22;5571;48.110;-1.706;2023-09-07T02:54:15;24.40;99.90
11035;DHT22;5571;48.110;-1.706;2023-09-07T02:56:41;24.40;99.90
11035;DHT22;5571;48.110;-1.706;2023-09-07T02:59:07;24.30;99.90
11035;DHT22;5571;48.110;-1.706;2023-09-07T03:01:32;24.40;99.90
11035;DHT22;5571;48.110;-1.706;2023-09-07T03:03:58;24.30;99.90
11035;DHT22;5571;48.110;-1.706;2023-09-07T03:06:23;24.30;99.90
11035;DHT22;5571;48.110;-1.706;2023-09-07T03:08:49;24.30;99.90
11035;DHT22;5571;48.110;-1.706;2023-09-07T03:11:14;24.30;99.90
11035;DHT22;5571;48.110;-1.706;2023-09-07T03:13:40;24.20;99.90
11035;DHT22;5571;48.110;-1.706;2023-09-07T03:16:07;24.20;99.90
11035;DHT22;5571;48.110;-1.706;2023-09-07T03:18:33;24.20;99.90
11035;DHT22;5571;48.110;-1.706;2023-09-07T03:21:00;24.20;99.90
11035;DHT22;5571;48.110;-1.706;2023-09-07T03:23:27;24.20;99.90
11035;DHT22;5571;48.110;-1.706;2023-09-07T03:25:53;24.20;99.90
11035;DHT22;5571;48.110;-1.706;2023-09-07T03:28:18;24.20;99.90
11035;DHT22;5571;48.110;-1.706;2023-09-07T03:30:44;24.10;99.90
11035;DHT22;5571;48.110;-1.706;2023-09-07T03:33:10;24.10;99.90
11035;DHT22;5571;48.110;-1.706;2023-09-07T03:35:35;24.10;99.90
11035;DHT22;5571;48.110;-1.706;2023-09-07T03:38:01;24.10;99.90
11035;DHT22;5571;48.110;-1.706;2023-09-07T03:40:27;24.00;99.90
11035;DHT22;5571;48.110;-1.706;2023-09-07T03:42:52;24.00;99.90
11035;DHT22;5571;48.110;-1.706;2023-09-07T03:45:18;24.00;99.90
11035;DHT22;5571;48.110;-1.706;2023-09-07T03:47:43;24.00;99.90
11035;DHT22;5571;48.110;-1.706;2023-09-07T03:50:09;24.00;99.90
11035;DHT22;5571;48.110;-1.706;2023-09-07T03:52:35;24.00;99.90
11035;DHT22;5571;48.110;-1.706;2023-09-07T03:55:01;23.90;99.90
11035;DHT22;5571;48.110;-1.706;2023-09-07T03:57:27;23.90;99.90
11035;DHT22;5571;48.110;-1.706;2023-09-07T03:59:53;23.90;99.90
11035;DHT22;5571;48.110;-1.706;2023-09-07T04:02:21;23.90;99.90
11035;DHT22;5571;48.110;-1.706;2023-09-07T04:04:53;23.90;99.90
11035;DHT22;5571;48.110;-1.706;2023-09-07T04:07:19;23.90;99.90
11035;DHT22;5571;48.110;-1.706;2023-09-07T04:09:45;23.80;99.90
11035;DHT22;5571;48.110;-1.706;2023-09-07T04:12:11;23.90;99.90
11035;DHT22;5571;48.110;-1.706;2023-09-07T04:14:37;23.80;99.90
11035;DHT22;5571;48.110;-1.706;2023-09-07T04:17:04;23.80;99.90
11035;DHT22;5571;48.110;-1.706;2023-09-07T04:19:30;23.90;99.90
11035;DHT22;5571;48.110;-1.706;2023-09-07T04:21:57;23.80;99.90
11035;DHT22;5571;48.110;-1.706;2023-09-07T04:24:23;23.90;99.90
11035;DHT22;5571;48.110;-1.706;2023-09-07T04:26:48;23.80;99.90
11035;DHT22;5571;48.110;-1.706;2023-09-07T04:29:15;23.80;99.90
11035;DHT22;5571;48.110;-1.706;2023-09-07T04:31:41;23.80;99.90
11035;DHT22;5571;48.110;-1.706;2023-09-07T04:34:07;23.80;99.90
11035;DHT22;5571;48.110;-1.706;2023-09-07T04:36:33;23.80;99.90
11035;DHT22;5571;48.110;-1.706;2023-09-07T04:38:59;23.80;99.90
11035;DHT22;5571;48.110;-1.706;2023-09-07T04:41:24;23.70;99.90
11035;DHT22;5571;48.110;-1.706;2023-09-07T04:43:50;23.70;99.90
11035;DHT22;5571;48.110;-1.706;2023-09-07T04:46:15;23.70;99.90
11035;DHT22;5571;48.110;-1.706;2023-09-07T04:48:42;23.70;99.90
11035;DHT22;5571;48.110;-1.706;2023-09-07T04:51:10;23.70;99.90
11035;DHT22;5571;48.110;-1.706;2023-09-07T04:53:39;23.70;99.90
11035;DHT22;5571;48.110;-1.706;2023-09-07T04:56:06;23.70;99.90
11035;DHT22;5571;48.110;-1.706;2023-09-07T04:58:32;23.70;99.90
11035;DHT22;5571;48.110;-1.706;2023-09-07T05:01:09;23.70;99.90
11035;DHT22;5571;48.110;-1.706;2023-09-07T05:03:35;23.70;99.90
11035;DHT22;5571;48.110;-1.706;2023-09-07T05:06:01;23.70;99.90
11035;DHT22;5571;48.110;-1.706;2023-09-07T05:08:28;23.70;99.90
11035;DHT22;5571;48.110;-1.706;2023-09-07T05:10:59;23.60;99.90
11035;DHT22;5571;48.110;-1.706;2023-09-07T05:13:26;23.60;99.90
11035;DHT22;5571;48.110;-1.706;2023-09-07T05:15:52;23.60;99.90
11035;DHT22;5571;48.110;-1.706;2023-09-07T05:18:18;23.60;99.90
11035;DHT22;5571;48.110;-1.706;2023-09-07T05:20:44;23.60;99.90
11035;DHT22;5571;48.110;-1.706;2023-09-07T05:23:13;23.60;99.90
11035;DHT22;5571;48.110;-1.706;2023-09-07T05:25:51;23.60;99.90
11035;DHT22;5571;48.110;-1.706;2023-09-07T05:28:22;23.50;99.90
11035;DHT22;5571;48.110;-1.706;2023-09-07T05:30:48;23.50;99.90
11035;DHT22;5571;48.110;-1.706;2023-09-07T05:33:15;23.50;99.90
11035;DHT22;5571;48.110;-1.706;2023-09-07T05:35:41;23.50;99.90
11035;DHT22;5571;48.110;-1.706;2023-09-07T05:38:08;23.40;99.90
11035;DHT22;5571;48.110;-1.706;2023-09-07T05:40:38;23.40;99.90
11035;DHT22;5571;48.110;-1.706;2023-09-07T05:43:04;23.40;99.90
11035;DHT22;5571;48.110;-1.706;2023-09-07T05:45:30;23.40;99.90
11035;DHT22;5571;48.110;-1.706;2023-09-07T05:47:57;23.50;99.90
11035;DHT22;5571;48.110;-1.706;2023-09-07T05:50:23;23.50;99.90
11035;DHT22;5571;48.110;-1.706;2023-09-07T05:52:48;23.50;99.90
11035;DHT22;5571;48.110;-1.706;2023-09-07T05:55:14;23.50;99.90
11035;DHT22;5571;48.110;-1.706;2023-09-07T05:57:41;23.50;99.90
11035;DHT22;5571;48.110;-1.706;2023-09-07T06:00:07;23.50;99.90
11035;DHT22;5571;48.110;-1.706;2023-09-07T06:02:32;23.50;99.90
11035;DHT22;5571;48.110;-1.706;2023-09-07T06:04:58;23.50;99.90
11035;DHT22;5571;48.110;-1.706;2023-09-07T06:07:24;23.50;99.90
11035;DHT22;5571;48.110;-1.706;2023-09-07T06:09:49;23.50;99.90
11035;DHT22;5571;48.110;-1.706;2023-09-07T06:12:15;23.50;99.90
11035;DHT22;5571;48.110;-1.706;2023-09-07T06:14:40;23.60;99.90
11035;DHT22;5571;48.110;-1.706;2023-09-07T06:17:06;23.60;99.90
11035;DHT22;5571;48.110;-1.706;2023-09-07T06:19:32;23.60;99.90
11035;DHT22;5571;48.110;-1.706;2023-09-07T06:21:58;23.70;99.90
11035;DHT22;5571;48.110;-1.706;2023-09-07T06:24:23;23.70;99.90
11035;DHT22;5571;48.110;-1.706;2023-09-07T06:26:49;23.70;99.90
11035;DHT22;5571;48.110;-1.706;2023-09-07T06:29:15;23.70;99.90
11035;DHT22;5571;48.110;-1.706;2023-09-07T06:31:41;23.80;99.90
11035;DHT22;5571;48.110;-1.706;2023-09-07T06:34:06;23.80;99.90
11035;DHT22;5571;48.110;-1.706;2023-09-07T06:36:32;23.80;99.90
11035;DHT22;5571;48.110;-1.706;2023-09-07T06:38:57;23.90;99.90
11035;DHT22;5571;48.110;-1.706;2023-09-07T06:41:24;23.90;99.90
11035;DHT22;5571;48.110;-1.706;2023-09-07T06:43:49;23.90;99.90
11035;DHT22;5571;48.110;-1.706;2023-09-07T06:46:16;24.00;99.90
11035;DHT22;5571;48.110;-1.706;2023-09-07T06:48:41;24.00;99.90
11035;DHT22;5571;48.110;-1.706;2023-09-07T06:51:07;24.10;99.90
11035;DHT22;5571;48.110;-1.706;2023-09-07T06:53:34;24.10;99.90
11035;DHT22;5571;48.110;-1.706;2023-09-07T06:56:01;24.20;99.90
11035;DHT22;5571;48.110;-1.706;2023-09-07T06:58:27;24.30;99.90
11035;DHT22;5571;48.110;-1.706;2023-09-07T07:01:00;24.30;99.90
11035;DHT22;5571;48.110;-1.706;2023-09-07T07:03:29;24.30;99.90
11035;DHT22;5571;48.110;-1.706;2023-09-07T07:05:55;24.40;99.90
11035;DHT22;5571;48.110;-1.706;2023-09-07T07:08:22;24.50;99.90
11035;DHT22;5571;48.110;-1.706;2023-09-07T07:10:48;24.60;99.90
11035;DHT22;5571;48.110;-1.706;2023-09-07T07:13:14;24.60;99.90
11035;DHT22;5571;48.110;-1.706;2023-09-07T07:15:40;24.60;99.90
11035;DHT22;5571;48.110;-1.706;2023-09-07T07:18:05;24.60;99.90
11035;DHT22;5571;48.110;-1.706;2023-09-07T07:20:40;24.70;99.90
11035;DHT22;5571;48.110;-1.706;2023-09-07T07:23:06;24.70;99.90
11035;DHT22;5571;48.110;-1.706;2023-09-07T07:25:32;24.80;99.90
11035;DHT22;5571;48.110;-1.706;2023-09-07T07:27:59;24.90;99.90
11035;DHT22;5571;48.110;-1.706;2023-09-07T07:30:28;24.90;99.90
11035;DHT22;5571;48.110;-1.706;2023-09-07T07:32:56;25.00;99.90
11035;DHT22;5571;48.110;-1.706;2023-09-07T07:35:22;25.00;99.90
11035;DHT22;5571;48.110;-1.706;2023-09-07T07:37:51;25.00;99.90
11035;DHT22;5571;48.110;-1.706;2023-09-07T07:40:17;25.10;99.90
11035;DHT22;5571;48.110;-1.706;2023-09-07T07:42:44;25.20;99.90
11035;DHT22;5571;48.110;-1.706;2023-09-07T07:45:10;25.20;99.90
11035;DHT22;5571;48.110;-1.706;2023-09-07T07:47:35;25.30;99.90
11035;DHT22;5571;48.110;-1.706;2023-09-07T07:50:01;25.30;99.90
11035;DHT22;5571;48.110;-1.706;2023-09-07T07:52:27;25.40;99.90
11035;DHT22;5571;48.110;-1.706;2023-09-07T07:54:53;25.50;99.90
11035;DHT22;5571;48.110;-1.706;2023-09-07T07:57:19;25.50;99.90
11035;DHT22;5571;48.110;-1.706;2023-09-07T07:59:44;25.50;99.90
11035;DHT22;5571;48.110;-1.706;2023-09-07T08:02:10;25.50;99.90
11035;DHT22;5571;48.110;-1.706;2023-09-07T08:04:35;25.60;99.90
11035;DHT22;5571;48.110;-1.706;2023-09-07T08:07:01;25.70;99.90
11035;DHT22;5571;48.110;-1.706;2023-09-07T08:09:32;25.80;99.90
11035;DHT22;5571;48.110;-1.706;2023-09-07T08:11:58;25.80;99.90
11035;DHT22;5571;48.110;-1.706;2023-09-07T08:14:25;25.90;99.90
11035;DHT22;5571;48.110;-1.706;2023-09-07T08:16:51;26.00;99.90
11035;DHT22;5571;48.110;-1.706;2023-09-07T08:19:17;26.10;99.90
11035;DHT22;5571;48.110;-1.706;2023-09-07T08:21:43;26.20;99.90
11035;DHT22;5571;48.110;-1.706;2023-09-07T08:24:09;26.20;99.90
11035;DHT22;5571;48.110;-1.706;2023-09-07T08:26:38;26.30;99.90
11035;DHT22;5571;48.110;-1.706;2023-09-07T08:29:04;26.40;99.90
11035;DHT22;5571;48.110;-1.706;2023-09-07T08:31:37;26.40;99.90
11035;DHT22;5571;48.110;-1.706;2023-09-07T08:34:05;26.40;99.90
11035;DHT22;5571;48.110;-1.706;2023-09-07T08:36:31;26.50;99.90
11035;DHT22;5571;48.110;-1.706;2023-09-07T08:38:59;26.60;99.90
11035;DHT22;5571;48.110;-1.706;2023-09-07T08:41:26;26.60;99.90
11035;DHT22;5571;48.110;-1.706;2023-09-07T08:43:54;26.70;99.90
11035;DHT22;5571;48.110;-1.706;2023-09-07T08:46:20;26.60;99.90
11035;DHT22;5571;48.110;-1.706;2023-09-07T08:48:52;26.70;99.90
11035;DHT22;5571;48.110;-1.706;2023-09-07T08:51:19;26.90;99.90
11035;DHT22;5571;48.110;-1.706;2023-09-07T08:53:45;26.80;99.90
11035;DHT22;5571;48.110;-1.706;2023-09-07T08:56:16;27.00;99.90
11035;DHT22;5571;48.110;-1.706;2023-09-07T08:58:42;27.00;99.90
11035;DHT22;5571;48.110;-1.706;2023-09-07T09:01:10;27.10;99.90
11035;DHT22;5571;48.110;-1.706;2023-09-07T09:03:36;27.20;99.90
11035;DHT22;5571;48.110;-1.706;2023-09-07T09:06:03;27.20;99.90
11035;DHT22;5571;48.110;-1.706;2023-09-07T09:08:29;27.20;99.90
11035;DHT22;5571;48.110;-1.706;2023-09-07T09:10:59;27.30;99.90
11035;DHT22;5571;48.110;-1.706;2023-09-07T09:13:30;27.50;99.90
11035;DHT22;5571;48.110;-1.706;2023-09-07T09:15:56;27.50;99.90
11035;DHT22;5571;48.110;-1.706;2023-09-07T09:18:21;27.50;99.90
11035;DHT22;5571;48.110;-1.706;2023-09-07T09:20:48;27.70;99.90
11035;DHT22;5571;48.110;-1.706;2023-09-07T09:23:13;27.80;99.90
11035;DHT22;5571;48.110;-1.706;2023-09-07T09:25:41;27.80;99.90
11035;DHT22;5571;48.110;-1.706;2023-09-07T09:28:09;27.80;99.90
11035;DHT22;5571;48.110;-1.706;2023-09-07T09:30:35;27.80;99.90
11035;DHT22;5571;48.110;-1.706;2023-09-07T09:33:01;27.90;99.90
11035;DHT22;5571;48.110;-1.706;2023-09-07T09:35:28;27.90;99.90
11035;DHT22;5571;48.110;-1.706;2023-09-07T09:37:55;28.00;99.90
11035;DHT22;5571;48.110;-1.706;2023-09-07T09:40:21;28.00;99.90
11035;DHT22;5571;48.110;-1.706;2023-09-07T09:42:46;28.20;99.90
11035;DHT22;5571;48.110;-1.706;2023-09-07T09:45:13;28.40;99.90
11035;DHT22;5571;48.110;-1.706;2023-09-07T09:47:40;28.50;99.90
11035;DHT22;5571;48.110;-1.706;2023-09-07T09:50:10;28.60;99.90
11035;DHT22;5571;48.110;-1.706;2023-09-07T09:52:37;28.70;99.90
11035;DHT22;5571;48.110;-1.706;2023-09-07T09:55:07;28.80;99.90
11035;DHT22;5571;48.110;-1.706;2023-09-07T09:57:34;28.90;99.90
11035;DHT22;5571;48.110;-1.706;2023-09-07T10:00:00;29.00;99.90
11035;DHT22;5571;48.110;-1.706;2023-09-07T10:02:34;29.10;99.90
11035;DHT22;5571;48.110;-1.706;2023-09-07T10:05:02;29.20;99.90
11035;DHT22;5571;48.110;-1.706;2023-09-07T10:07:47;29.30;99.90
11035;DHT22;5571;48.110;-1.706;2023-09-07T10:10:14;29.30;99.90
11035;DHT22;5571;48.110;-1.706;2023-09-07T10:12:43;29.40;99.90
11035;DHT22;5571;48.110;-1.706;2023-09-07T10:15:30;29.60;99.90
11035;DHT22;5571;48.110;-1.706;2023-09-07T10:18:14;29.70;99.90
11035;DHT22;5571;48.110;-1.706;2023-09-07T10:20:55;29.70;99.90
11035;DHT22;5571;48.110;-1.706;2023-09-07T10:23:22;29.80;99.90
11035;DHT22;5571;48.110;-1.706;2023-09-07T10:25:52;30.00;99.90
11035;DHT22;5571;48.110;-1.706;2023-09-07T10:28:22;30.10;99.90
11035;DHT22;5571;48.110;-1.706;2023-09-07T10:31:12;30.20;99.90
11035;DHT22;5571;48.110;-1.706;2023-09-07T10:33:38;30.30;99.90
11035;DHT22;5571;48.110;-1.706;2023-09-07T10:36:04;30.40;99.90
11035;DHT22;5571;48.110;-1.706;2023-09-07T10:38:35;30.40;99.90
11035;DHT22;5571;48.110;-1.706;2023-09-07T10:41:03;30.60;99.90
11035;DHT22;5571;48.110;-1.706;2023-09-07T10:43:30;30.70;99.90
11035;DHT22;5571;48.110;-1.706;2023-09-07T10:45:57;30.80;99.90
11035;DHT22;5571;48.110;-1.706;2023-09-07T10:48:29;30.80;99.90
11035;DHT22;5571;48.110;-1.706;2023-09-07T10:50:55;30.90;99.90
11035;DHT22;5571;48.110;-1.706;2023-09-07T10:53:30;30.90;99.90
11035;DHT22;5571;48.110;-1.706;2023-09-07T10:56:05;31.00;99.90
11035;DHT22;5571;48.110;-1.706;2023-09-07T10:58:33;31.10;99.90
11035;DHT22;5571;48.110;-1.706;2023-09-07T11:00:59;31.10;99.90
11035;DHT22;5571;48.110;-1.706;2023-09-07T11:03:27;31.10;99.90
11035;DHT22;5571;48.110;-1.706;2023-09-07T11:06:14;31.20;99.90
11035;DHT22;5571;48.110;-1.706;2023-09-07T11:08:40;31.40;99.90
11035;DHT22;5571;48.110;-1.706;2023-09-07T11:11:08;31.50;99.90
11035;DHT22;5571;48.110;-1.706;2023-09-07T11:13:34;31.50;99.90
11035;DHT22;5571;48.110;-1.706;2023-09-07T11:16:00;31.50;99.90
11035;DHT22;5571;48.110;-1.706;2023-09-07T11:18:26;31.70;99.90
11035;DHT22;5571;48.110;-1.706;2023-09-07T11:20:52;31.60;99.90
11035;DHT22;5571;48.110;-1.706;2023-09-07T11:23:20;31.50;99.90
11035;DHT22;5571;48.110;-1.706;2023-09-07T11:25:49;31.70;99.90
11035;DHT22;5571;48.110;-1.706;2023-09-07T11:28:17;31.80;99.90
11035;DHT22;5571;48.110;-1.706;2023-09-07T11:30:53;32.00;99.90
11035;DHT22;5571;48.110;-1.706;2023-09-07T11:33:23;32.20;99.90
11035;DHT22;5571;48.110;-1.706;2023-09-07T11:35:49;32.20;99.90
11035;DHT22;5571;48.110;-1.706;2023-09-07T11:38:16;32.40;99.90
11035;DHT22;5571;48.110;-1.706;2023-09-07T11:40:43;32.40;99.90
11035;DHT22;5571;48.110;-1.706;2023-09-07T11:43:15;32.50;99.90
11035;DHT22;5571;48.110;-1.706;2023-09-07T11:45:42;32.40;99.90
11035;DHT22;5571;48.110;-1.706;2023-09-07T11:48:08;32.40;99.90
11035;DHT22;5571;48.110;-1.706;2023-09-07T11:50:35;32.30;99.90
11035;DHT22;5571;48.110;-1.706;2023-09-07T11:53:01;32.20;99.90
11035;DHT22;5571;48.110;-1.706;2023-09-07T11:55:26;32.20;99.90
11035;DHT22;5571;48.110;-1.706;2023-09-07T11:57:52;32.30;99.90
11035;DHT22;5571;48.110;-1.706;2023-09-07T12:00:18;32.30;99.90
11035;DHT22;5571;48.110;-1.706;2023-09-07T12:02:44;32.20;99.90
11035;DHT22;5571;48.110;-1.706;2023-09-07T12:05:10;32.00;99.90
11035;DHT22;5571;48.110;-1.706;2023-09-07T12:07:40;32.10;99.90
11035;DHT22;5571;48.110;-1.706;2023-09-07T12:10:06;31.90;99.90
11035;DHT22;5571;48.110;-1.706;2023-09-07T12:12:36;31.90;99.90
11035;DHT22;5571;48.110;-1.706;2023-09-07T12:15:02;32.00;99.90
11035;DHT22;5571;48.110;-1.706;2023-09-07T12:17:33;32.10;99.90
11035;DHT22;5571;48.110;-1.706;2023-09-07T12:19:59;32.30;99.90
11035;DHT22;5571;48.110;-1.706;2023-09-07T12:22:26;32.30;99.90
11035;DHT22;5571;48.110;-1.706;2023-09-07T12:24:52;32.50;99.90
11035;DHT22;5571;48.110;-1.706;2023-09-07T12:27:17;32.70;99.90
11035;DHT22;5571;48.110;-1.706;2023-09-07T12:29:44;32.80;99.90
11035;DHT22;5571;48.110;-1.706;2023-09-07T12:32:09;32.90;99.90
11035;DHT22;5571;48.110;-1.706;2023-09-07T12:34:35;32.70;99.90
11035;DHT22;5571;48.110;-1.706;2023-09-07T12:37:02;32.90;99.90
11035;DHT22;5571;48.110;-1.706;2023-09-07T12:39:30;33.10;99.90
11035;DHT22;5571;48.110;-1.706;2023-09-07T12:41:55;33.30;99.90
11035;DHT22;5571;48.110;-1.706;2023-09-07T12:44:21;33.40;99.90
11035;DHT22;5571;48.110;-1.706;2023-09-07T12:46:47;33.60;99.90
11035;DHT22;5571;48.110;-1.706;2023-09-07T12:49:12;33.40;99.90
11035;DHT22;5571;48.110;-1.706;2023-09-07T12:51:40;33.50;99.90
11035;DHT22;5571;48.110;-1.706;2023-09-07T12:54:06;33.00;99.90
11035;DHT22;5571;48.110;-1.706;2023-09-07T12:56:32;32.80;99.90
11035;DHT22;5571;48.110;-1.706;2023-09-07T12:58:58;32.50;99.90
11035;DHT22;5571;48.110;-1.706;2023-09-07T13:01:25;32.40;99.90
11035;DHT22;5571;48.110;-1.706;2023-09-07T13:03:51;32.30;99.90
11035;DHT22;5571;48.110;-1.706;2023-09-07T13:06:16;32.50;99.90
11035;DHT22;5571;48.110;-1.706;2023-09-07T13:08:43;32.70;99.90
11035;DHT22;5571;48.110;-1.706;2023-09-07T13:11:10;32.90;99.90
11035;DHT22;5571;48.110;-1.706;2023-09-07T13:13:36;33.20;99.90
11035;DHT22;5571;48.110;-1.706;2023-09-07T13:16:01;33.30;99.90
11035;DHT22;5571;48.110;-1.706;2023-09-07T13:18:27;33.20;99.90
11035;DHT22;5571;48.110;-1.706;2023-09-07T13:20:53;32.80;99.90
11035;DHT22;5571;48.110;-1.706;2023-09-07T13:23:33;32.50;99.90
11035;DHT22;5571;48.110;-1.706;2023-09-07T13:25:59;32.60;99.90
11035;DHT22;5571;48.110;-1.706;2023-09-07T13:28:26;32.90;99.90
11035;DHT22;5571;48.110;-1.706;2023-09-07T13:30:52;32.90;99.90
11035;DHT22;5571;48.110;-1.706;2023-09-07T13:33:17;32.90;99.90
11035;DHT22;5571;48.110;-1.706;2023-09-07T13:35:43;32.80;99.90
11035;DHT22;5571;48.110;-1.706;2023-09-07T13:38:09;32.50;99.90
11035;DHT22;5571;48.110;-1.706;2023-09-07T13:40:35;32.40;99.90
11035;DHT22;5571;48.110;-1.706;2023-09-07T13:43:01;32.40;99.90
11035;DHT22;5571;48.110;-1.706;2023-09-07T13:45:26;32.40;99.90
11035;DHT22;5571;48.110;-1.706;2023-09-07T13:47:54;32.40;99.90
11035;DHT22;5571;48.110;-1.706;2023-09-07T13:50:20;32.60;99.90
11035;DHT22;5571;48.110;-1.706;2023-09-07T13:52:46;32.80;99.90
11035;DHT22;5571;48.110;-1.706;2023-09-07T13:55:11;32.90;99.90
11035;DHT22;5571;48.110;-1.706;2023-09-07T13:57:37;32.90;99.90
11035;DHT22;5571;48.110;-1.706;2023-09-07T14:00:03;33.00;99.90
11035;DHT22;5571;48.110;-1.706;2023-09-07T14:02:31;33.30;99.90
11035;DHT22;5571;48.110;-1.706;2023-09-07T14:04:58;33.30;99.90
11035;DHT22;5571;48.110;-1.706;2023-09-07T14:07:23;33.40;99.90
11035;DHT22;5571;48.110;-1.706;2023-09-07T14:09:52;33.40;99.90
11035;DHT22;5571;48.110;-1.706;2023-09-07T14:12:17;33.20;99.90
11035;DHT22;5571;48.110;-1.706;2023-09-07T14:14:43;33.30;99.90
11035;DHT22;5571;48.110;-1.706;2023-09-07T14:17:09;33.20;99.90
11035;DHT22;5571;48.110;-1.706;2023-09-07T14:19:34;33.00;99.90
11035;DHT22;5571;48.110;-1.706;2023-09-07T14:22:00;33.00;99.90
11035;DHT22;5571;48.110;-1.706;2023-09-07T14:24:26;33.10;99.90
11035;DHT22;5571;48.110;-1.706;2023-09-07T14:26:51;33.00;99.90
11035;DHT22;5571;48.110;-1.706;2023-09-07T14:29:17;33.20;99.90
11035;DHT22;5571;48.110;-1.706;2023-09-07T14:31:43;33.20;99.90
11035;DHT22;5571;48.110;-1.706;2023-09-07T14:34:12;33.10;99.90
11035;DHT22;5571;48.110;-1.706;2023-09-07T14:36:38;32.90;99.90
11035;DHT22;5571;48.110;-1.706;2023-09-07T14:39:08;32.90;99.90
11035;DHT22;5571;48.110;-1.706;2023-09-07T14:41:34;32.60;99.90
11035;DHT22;5571;48.110;-1.706;2023-09-07T14:44:00;32.40;99.90
11035;DHT22;5571;48.110;-1.706;2023-09-07T14:46:26;32.20;99.90
11035;DHT22;5571;48.110;-1.706;2023-09-07T14:48:52;32.10;99.90
11035;DHT22;5571;48.110;-1.706;2023-09-07T14:51:18;32.00;99.90
11035;DHT22;5571;48.110;-1.706;2023-09-07T14:53:44;31.90;99.90
11035;DHT22;5571;48.110;-1.706;2023-09-07T14:56:10;31.90;99.90
11035;DHT22;5571;48.110;-1.706;2023-09-07T14:58:36;31.90;99.90
11035;DHT22;5571;48.110;-1.706;2023-09-07T15:01:01;31.90;99.90
11035;DHT22;5571;48.110;-1.706;2023-09-07T15:03:29;31.90;99.90
11035;DHT22;5571;48.110;-1.706;2023-09-07T15:05:54;32.00;99.90
11035;DHT22;5571;48.110;-1.706;2023-09-07T15:08:20;32.30;99.90
11035;DHT22;5571;48.110;-1.706;2023-09-07T15:10:46;32.30;99.90
11035;DHT22;5571;48.110;-1.706;2023-09-07T15:13:11;32.30;99.90
11035;DHT22;5571;48.110;-1.706;2023-09-07T15:15:37;32.40;99.90
11035;DHT22;5571;48.110;-1.706;2023-09-07T15:18:05;32.50;99.90
11035;DHT22;5571;48.110;-1.706;2023-09-07T15:20:32;32.70;99.90
11035;DHT22;5571;48.110;-1.706;2023-09-07T15:22:57;33.10;99.90
11035;DHT22;5571;48.110;-1.706;2023-09-07T15:25:23;33.20;99.90
11035;DHT22;5571;48.110;-1.706;2023-09-07T15:27:49;33.00;99.90